WetterOnline ( https://www.wetteronline.de )

Wetter aktuell Estepona

Aktuelles Wetter: Gibraltar (5m)

6-stündlich | Neueste Meldungen
Ortszeit Temperatur Wetter
Mo, 20.09. 2:00 20.5° C wolkig
So, 19.09. 20:00 20.9° C fast wolkenlos
So, 19.09. 14:00 27.1° C fast wolkenlos
So, 19.09. 8:00 20.0° C wolkenlos
So, 19.09. 2:00 22.1° C -
Sa, 18.09. 20:00 25.5° C fast wolkenlos
Sa, 18.09. 14:00 26.0° C fast wolkenlos
Sa, 18.09. 8:00 20.8° C fast wolkenlos
Ortszeit Temperatur Wetter
Mo, 20.09. 4:00 21.5° C bewölkt
Mo, 20.09. 3:50 22° C bewölkt
Mo, 20.09. 3:00 21.6° C wolkig
Mo, 20.09. 2:50 22° C bewölkt
Mo, 20.09. 2:00 20.5° C wolkig
Mo, 20.09. 1:50 21° C bewölkt
Mo, 20.09. 1:00 20.3° C bedeckt
Mo, 20.09. 0:50 20° C Nebel
Mo, 20.09. 0:00 20.3° C Nebel
Ortszeit Relative Feuchte Sichtweite
Mo, 20.09. 2:00 97% 9 km
So, 19.09. 20:00 76% 30 km
So, 19.09. 14:00 49% 40 km
So, 19.09. 8:00 65% 40 km
So, 19.09. 2:00 53% 55 km
Sa, 18.09. 20:00 53% 40 km
Sa, 18.09. 14:00 59% 35 km
Sa, 18.09. 8:00 86% 8 km
Ortszeit Relative Feuchte Sichtweite
Mo, 20.09. 4:00 88% 14 km
Mo, 20.09. 3:50 83% >10 km
Mo, 20.09. 3:00 92% 14 km
Mo, 20.09. 2:50 88% >10 km
Mo, 20.09. 2:00 97% 9 km
Mo, 20.09. 1:50 94% 9 km
Mo, 20.09. 1:00 96% 0.2 km
Mo, 20.09. 0:50 100% 0.2 km
Mo, 20.09. 0:00 95% 100 m
Ortszeit Niederschlagsmenge Niederschlagsart
Mo, 20.09. 2:00 0.1 l/m2 in 6 Std. -
So, 19.09. 20:00 0.0 l/m2 in 12 Std. -
So, 19.09. 14:00 0.0 l/m2 in 6 Std. -
So, 19.09. 8:00 0.0 l/m2 in 12 Std. -
So, 19.09. 2:00 0.0 l/m2 in 6 Std. -
Sa, 18.09. 20:00 0.0 l/m2 in 12 Std. -
Sa, 18.09. 14:00 0.0 l/m2 in 6 Std. -
Sa, 18.09. 8:00 0.0 l/m2 in 12 Std. -
Ortszeit Niederschlagsmenge Niederschlagsart
Mo, 20.09. 4:00 keine Meldung -
Mo, 20.09. 3:50 keine Meldung -
Mo, 20.09. 3:00 keine Meldung -
Mo, 20.09. 2:50 keine Meldung -
Mo, 20.09. 2:00 keine Meldung -
Mo, 20.09. 1:50 keine Meldung -
Mo, 20.09. 1:00 keine Meldung -
Mo, 20.09. 0:50 keine Meldung -
Mo, 20.09. 0:00 keine Meldung -
Ortszeit Stärke Spitze Richtung
km/h Bft. km/h Grad Sektor
Mo, 20.09. 2:00 6 1 - 50° NO
So, 19.09. 20:00 11 2 - 90° O
So, 19.09. 14:00 11 2 - 200° S
So, 19.09. 8:00 13 3 - 240° SW
So, 19.09. 2:00 22 4 - 220° SW
Sa, 18.09. 20:00 24 4 - 270° W
Sa, 18.09. 14:00 22 4 - 200° S
Sa, 18.09. 8:00 6 1 - 80° O
Ortszeit Stärke Spitze Richtung
km/h Bft. km/h Grad Sektor
Mo, 20.09. 4:00 7 2 - 70° O
Mo, 20.09. 3:50 7 2 - 70° O
Mo, 20.09. 3:00 9 2 - 80° O
Mo, 20.09. 2:50 9 2 - 80° O
Mo, 20.09. 2:00 6 1 - 50° NO
Mo, 20.09. 1:50 6 1 - 50° NO
Mo, 20.09. 1:00 11 2 - 80° O
Mo, 20.09. 0:50 11 2 - 80° O
Mo, 20.09. 0:00 9 2 - 50° NO
Ortszeit Untergrenze Bedeckung Gattung
total tief tief mittel hoch
Mo, 20.09. 2:00 30 m - 6/8 - - -
So, 19.09. 20:00 9000 m 1/8 0/8 - - Ci
So, 19.09. 14:00 1500 m 1/8 1/8 Cu - Ci
So, 19.09. 8:00 - 0/8 0/8 - - -
So, 19.09. 2:00 2400 m - - - - -
Sa, 18.09. 20:00 1800 m 1/8 1/8 Cu - -
Sa, 18.09. 14:00 1200 m 1/8 1/8 Cu - -
Sa, 18.09. 8:00 180 m 1/8 1/8 St - -
Ortszeit Bedeckungsgrad in Achtel und Wolkenuntergrenze
Mo, 20.09. 4:00 7(330m)
Mo, 20.09. 3:50 5-7(330m)
Mo, 20.09. 3:00 5(330m)
Mo, 20.09. 2:50 5-7(330m)
Mo, 20.09. 2:00 4(30m) 6(180m)
Mo, 20.09. 1:50 3-4(30m) 5-7(180m)
Mo, 20.09. 1:00 8(30m)
Mo, 20.09. 0:50 8(30m)
Mo, 20.09. 0:00 7(30m)
Ortszeit Luftdruck NN (hPa) Tendenz (hPa in 3 Std.)
Mo, 20.09. 2:00 1019 + 0,4
So, 19.09. 20:00 1017 + 0,8
So, 19.09. 14:00 1017 - 0,4
So, 19.09. 8:00 1016 + 0,8
So, 19.09. 2:00 1015 0,0
Sa, 18.09. 20:00 1014 + 0,1
Sa, 18.09. 14:00 1016 - 0,7
Sa, 18.09. 8:00 1015 + 0,7
Ortszeit Luftdruck NN (hPa) Tendenz (hPa in 3 Std.)
Mo, 20.09. 4:00 1018 - 0,3
Mo, 20.09. 3:50 1017 keine Meldung
Mo, 20.09. 3:00 1018 - 0,4
Mo, 20.09. 2:50 1018 keine Meldung
Mo, 20.09. 2:00 1019 + 0,4
Mo, 20.09. 1:50 1018 keine Meldung
Mo, 20.09. 1:00 1018 + 0,6
Mo, 20.09. 0:50 1018 keine Meldung
Mo, 20.09. 0:00 1018 + 1,5
Ortszeit Schneehöhe (cm)
Mo, 20.09. 2:00 -
So, 19.09. 20:00 -
So, 19.09. 14:00 -
So, 19.09. 8:00 0
So, 19.09. 2:00 -
Sa, 18.09. 20:00 -
Sa, 18.09. 14:00 -
Sa, 18.09. 8:00 0
Ortszeit Schneehöhe (cm)
Mo, 20.09. 4:00 -
Mo, 20.09. 3:50 -
Mo, 20.09. 3:00 -
Mo, 20.09. 2:50 -
Mo, 20.09. 2:00 -
Mo, 20.09. 1:50 -
Mo, 20.09. 1:00 -
Mo, 20.09. 0:50 -
Mo, 20.09. 0:00 -
Link zu dieser Seite / Seite empfehlen

Das Wetter in ...